Time;durP1;ratioP1;P1;durP2;ratioP2;P2;SDS_P1;SDS_P2;PMS_P1;PMS_P2;Temp;Humidity;BMP_temperature;BMP_pressure;BME280_temperature;BME280_humidity;BME280_pressure;Samples;Min_cycle;Max_cycle;Signal;HPM_P1;HPM_P2
2022/12/31 00:01:53;;;;;;;6.32;2.30;;;11.00;99.90;;;;;;4978803;28;20056;-75
2022/12/31 00:04:19;;;;;;;5.93;2.40;;;11.00;99.90;;;;;;4995564;28;20129;-75
2022/12/31 00:06:45;;;;;;;7.25;2.08;;;11.00;99.90;;;;;;4986054;28;20061;-75
2022/12/31 00:09:10;;;;;;;5.28;1.98;;;11.00;99.90;;;;;;4992031;28;20057;-77
2022/12/31 00:11:39;;;;;;;2.97;1.30;;;11.00;99.90;;;;;;4996324;28;20133;-76
2022/12/31 00:14:05;;;;;;;1.60;1.00;;;10.90;99.90;;;;;;5021394;28;20099;-78
2022/12/31 00:16:35;;;;;;;1.58;0.98;;;10.90;99.90;;;;;;4990426;28;20069;-71
2022/12/31 00:19:01;;;;;;;2.05;1.27;;;11.00;99.90;;;;;;4999486;28;20056;-78
2022/12/31 00:21:31;;;;;;;3.00;1.40;;;11.00;99.90;;;;;;4992710;28;20054;-72
2022/12/31 00:23:56;;;;;;;3.90;1.33;;;11.00;99.90;;;;;;5020253;28;20118;-71
2022/12/31 00:26:26;;;;;;;3.45;1.33;;;10.90;99.90;;;;;;4986067;28;20198;-72
2022/12/31 00:28:55;;;;;;;1.75;1.05;;;10.90;99.90;;;;;;5015182;28;20053;-72
2022/12/31 00:31:23;;;;;;;2.50;1.00;;;10.90;99.90;;;;;;4976218;28;20065;-72
2022/12/31 00:33:49;;;;;;;2.40;1.00;;;11.00;99.90;;;;;;4976943;28;20085;-72
2022/12/31 00:36:16;;;;;;;1.10;0.82;;;11.00;99.90;;;;;;5019763;28;20163;-72
2022/12/31 00:38:48;;;;;;;1.55;0.90;;;11.00;99.90;;;;;;5000982;28;20050;-73
2022/12/31 00:41:15;;;;;;;1.40;1.10;;;11.00;99.90;;;;;;4987922;28;20057;-70
2022/12/31 00:43:40;;;;;;;0.70;0.65;;;11.00;99.90;;;;;;5002703;28;20046;-78
2022/12/31 00:46:06;;;;;;;1.40;0.85;;;11.10;99.90;;;;;;5004732;28;20034;-78
2022/12/31 00:48:33;;;;;;;1.60;0.90;;;11.20;99.90;;;;;;5018438;28;20188;-76
2022/12/31 00:50:59;;;;;;;2.58;0.98;;;11.20;99.90;;;;;;4989345;28;20045;-78
2022/12/31 00:53:25;;;;;;;1.52;0.95;;;11.10;99.90;;;;;;4971294;28;20046;-72
2022/12/31 00:55:51;;;;;;;2.65;0.80;;;11.20;99.90;;;;;;4976453;28;20543;-72
2022/12/31 00:58:17;;;;;;;2.05;1.00;;;11.20;99.90;;;;;;4985044;28;20105;-72
2022/12/31 01:00:43;;;;;;;1.15;0.85;;;11.30;99.90;;;;;;5004960;28;20069;-72
2022/12/31 01:03:09;;;;;;;1.40;0.82;;;11.30;99.90;;;;;;4971352;28;20125;-72
2022/12/31 01:05:36;;;;;;;1.42;0.82;;;11.40;99.90;;;;;;4997687;28;20045;-72
2022/12/31 01:08:03;;;;;;;1.42;0.57;;;11.40;99.90;;;;;;4997102;28;20046;-72
2022/12/31 01:13:18;;;;;;;1.10;0.73;;;11.40;99.90;;;;;;4975116;28;20297;-73
2022/12/31 01:15:43;;;;;;;1.25;0.77;;;11.40;99.90;;;;;;5015686;28;20053;-73
2022/12/31 01:18:09;;;;;;;0.75;0.65;;;11.50;99.90;;;;;;4982473;28;20042;-73
2022/12/31 01:20:39;;;;;;;1.50;0.90;;;11.50;99.90;;;;;;4983828;28;20410;-74
2022/12/31 01:23:05;;;;;;;1.20;0.90;;;11.50;99.90;;;;;;4993769;28;20046;-73
2022/12/31 01:25:53;;;;;;;1.15;0.90;;;11.50;99.90;;;;;;5012610;28;20042;-73
2022/12/31 01:28:19;;;;;;;1.75;1.08;;;11.50;99.90;;;;;;4976008;28;20044;-73
2022/12/31 01:30:45;;;;;;;1.45;0.80;;;11.50;99.90;;;;;;4993339;28;20050;-74
2022/12/31 01:33:11;;;;;;;1.67;1.13;;;11.50;99.90;;;;;;4985208;28;20550;-73
2022/12/31 01:35:37;;;;;;;3.28;1.38;;;11.60;99.90;;;;;;4997609;28;20050;-73
2022/12/31 01:38:03;;;;;;;2.47;1.33;;;11.60;99.90;;;;;;4956256;28;20471;-72
2022/12/31 01:40:29;;;;;;;1.40;0.85;;;11.60;99.90;;;;;;5000289;28;20080;-73
2022/12/31 01:42:56;;;;;;;1.83;1.05;;;11.70;99.90;;;;;;4999583;28;20089;-72
2022/12/31 01:45:23;;;;;;;0.68;0.68;;;11.70;99.90;;;;;;4972195;28;20045;-74
2022/12/31 01:47:53;;;;;;;1.52;0.90;;;11.70;99.90;;;;;;4989957;28;20074;-73
2022/12/31 01:50:32;;;;;;;1.83;0.90;;;11.80;99.90;;;;;;4997408;28;20472;-73
2022/12/31 01:53:02;;;;;;;2.10;1.00;;;11.80;99.90;;;;;;4972941;28;20054;-73
2022/12/31 01:55:46;;;;;;;1.33;1.00;;;11.80;99.90;;;;;;4988602;28;20042;-72
2022/12/31 01:58:19;;;;;;;2.28;1.00;;;11.90;99.90;;;;;;4995179;28;20049;-73
2022/12/31 02:00:44;;;;;;;1.60;1.08;;;11.80;99.90;;;;;;5013989;28;20049;-72
2022/12/31 02:03:11;;;;;;;1.52;0.95;;;11.80;99.90;;;;;;4987452;28;20107;-72
2022/12/31 02:05:58;;;;;;;2.05;1.10;;;11.80;99.90;;;;;;4978989;28;20696;-72
2022/12/31 02:08:24;;;;;;;2.08;1.15;;;11.80;99.90;;;;;;5023600;28;20045;-72
2022/12/31 02:10:51;;;;;;;2.65;1.27;;;12.00;99.90;;;;;;4977663;28;20413;-73
2022/12/31 02:13:17;;;;;;;1.73;0.98;;;11.90;99.90;;;;;;4996870;28;20377;-73
2022/12/31 02:15:51;;;;;;;1.27;0.93;;;11.90;99.90;;;;;;5010837;28;20038;-73
2022/12/31 02:18:36;;;;;;;1.80;1.08;;;11.90;99.90;;;;;;4995834;28;20046;-72
2022/12/31 02:21:22;;;;;;;1.33;0.60;;;11.90;99.90;;;;;;4987841;28;20066;-72
2022/12/31 02:23:53;;;;;;;1.17;0.80;;;12.00;99.90;;;;;;4983543;28;20046;-72
2022/12/31 02:26:27;;;;;;;3.03;0.70;;;12.00;99.90;;;;;;4991669;28;20587;-72
2022/12/31 02:29:14;;;;;;;0.95;0.73;;;12.00;99.90;;;;;;5019853;28;20046;-72
2022/12/31 02:32:02;;;;;;;0.52;0.50;;;12.00;99.90;;;;;;4988131;28;20046;-72
2022/12/31 02:34:36;;;;;;;0.95;0.45;;;12.00;99.90;;;;;;4987086;28;20042;-72
2022/12/31 02:37:03;;;;;;;1.27;0.60;;;12.00;99.90;;;;;;4991854;28;20118;-74
2022/12/31 02:39:30;;;;;;;0.85;0.45;;;12.10;99.90;;;;;;4984713;28;20050;-72
2022/12/31 02:41:56;;;;;;;1.48;0.80;;;12.20;99.90;;;;;;4987753;28;20496;-72
2022/12/31 02:44:24;;;;;;;0.80;0.50;;;12.20;99.90;;;;;;5001631;28;20084;-72
2022/12/31 02:47:08;;;;;;;2.38;0.80;;;12.20;99.90;;;;;;4983541;28;20045;-72
2022/12/31 02:49:45;;;;;;;0.77;0.50;;;12.30;99.90;;;;;;4992506;28;20035;-73
2022/12/31 02:52:26;;;;;;;1.50;0.60;;;12.30;99.90;;;;;;4988195;28;20450;-71
2022/12/31 02:55:08;;;;;;;0.95;0.65;;;12.30;99.90;;;;;;5012323;28;20054;-74
2022/12/31 02:57:37;;;;;;;0.88;0.60;;;12.30;99.90;;;;;;4983369;28;20129;-73
2022/12/31 03:02:52;;;;;;;2.30;0.70;;;12.40;99.90;;;;;;4981666;28;20042;-72
2022/12/31 03:05:20;;;;;;;0.50;0.50;;;12.40;99.90;;;;;;4986933;28;20468;-72
2022/12/31 03:07:46;;;;;;;0.70;0.60;;;12.50;99.90;;;;;;5015247;28;20045;-72
2022/12/31 03:10:12;;;;;;;1.15;0.77;;;12.50;99.90;;;;;;5006657;28;20744;-73
2022/12/31 03:12:46;;;;;;;0.60;0.55;;;12.60;99.90;;;;;;4978356;28;20046;-72
2022/12/31 03:15:21;;;;;;;0.80;0.60;;;12.60;99.90;;;;;;4980881;28;20053;-72
2022/12/31 03:18:15;;;;;;;0.82;0.57;;;12.70;99.90;;;;;;4994514;28;20050;-73
2022/12/31 03:23:32;;;;;;;1.27;0.70;;;12.80;99.90;;;;;;4993832;28;20050;-72
2022/12/31 03:25:58;;;;;;;0.85;0.55;;;12.80;99.90;;;;;;5022229;28;20078;-72
2022/12/31 03:28:25;;;;;;;1.02;0.55;;;12.90;99.90;;;;;;4986437;28;20376;-73
2022/12/31 03:30:57;;;;;;;1.50;0.50;;;12.90;99.90;;;;;;4985974;28;20488;-72
2022/12/31 03:33:23;;;;;;;1.15;0.40;;;12.90;99.90;;;;;;4993829;28;20068;-73
2022/12/31 03:35:49;;;;;;;0.85;0.50;;;13.00;99.90;;;;;;4970969;28;20353;-72
2022/12/31 03:38:15;;;;;;;0.35;0.20;;;12.90;99.90;;;;;;4991091;28;20054;-71
2022/12/31 03:40:43;;;;;;;1.30;0.40;;;12.90;99.90;;;;;;4993242;28;20057;-72
2022/12/31 03:43:09;;;;;;;0.75;0.40;;;12.80;99.90;;;;;;4994985;28;20054;-71
2022/12/31 03:45:35;;;;;;;0.85;0.22;;;12.70;99.90;;;;;;5021935;28;20050;-71
2022/12/31 03:48:01;;;;;;;0.68;0.30;;;12.80;99.90;;;;;;4986217;28;20133;-71
2022/12/31 03:50:27;;;;;;;1.65;0.40;;;12.70;99.90;;;;;;4985232;28;20428;-72
2022/12/31 03:52:53;;;;;;;1.08;0.40;;;12.60;99.90;;;;;;4991716;28;20205;-71
2022/12/31 03:55:19;;;;;;;0.85;0.28;;;12.60;99.90;;;;;;4992095;28;20096;-70
2022/12/31 03:57:44;;;;;;;0.38;0.30;;;12.60;99.90;;;;;;5000852;28;20050;-70
2022/12/31 04:00:13;;;;;;;0.40;0.30;;;12.60;99.90;;;;;;4992954;28;20066;-70
2022/12/31 04:02:40;;;;;;;1.23;0.40;;;12.50;99.90;;;;;;4969132;28;20381;-70
2022/12/31 04:05:06;;;;;;;0.65;0.45;;;12.50;99.90;;;;;;4970543;28;20130;-70
2022/12/31 04:07:32;;;;;;;0.82;0.50;;;12.50;99.90;;;;;;4985137;28;20066;-71
2022/12/31 04:09:58;;;;;;;1.17;0.30;;;12.50;99.90;;;;;;4980114;28;20118;-70
2022/12/31 04:12:24;;;;;;;0.30;0.30;;;12.50;99.90;;;;;;5014313;28;20089;-71
2022/12/31 04:14:50;;;;;;;0.75;0.38;;;12.50;99.90;;;;;;4990499;28;20524;-71
2022/12/31 04:17:15;;;;;;;3.97;0.60;;;12.50;99.90;;;;;;4985344;28;20042;-70
2022/12/31 04:19:41;;;;;;;0.50;0.20;;;12.50;99.90;;;;;;4998269;28;20046;-70
2022/12/31 04:22:07;;;;;;;0.32;0.32;;;12.40;99.90;;;;;;4986926;28;20729;-70
2022/12/31 04:24:33;;;;;;;0.20;0.20;;;12.40;99.90;;;;;;4956276;28;20105;-72
2022/12/31 04:26:58;;;;;;;0.32;0.20;;;12.40;99.90;;;;;;4987854;28;20054;-72
2022/12/31 04:29:24;;;;;;;0.55;0.22;;;12.40;99.90;;;;;;4984301;28;20046;-71
2022/12/31 04:31:50;;;;;;;0.38;0.30;;;12.40;99.90;;;;;;4991254;28;20112;-71
2022/12/31 04:34:16;;;;;;;0.20;0.20;;;12.40;99.90;;;;;;4981492;28;20077;-71
2022/12/31 04:36:41;;;;;;;0.30;0.28;;;12.40;99.90;;;;;;4984894;28;20610;-70
2022/12/31 04:39:07;;;;;;;1.55;0.13;;;12.50;99.90;;;;;;4968636;28;20050;-71
2022/12/31 04:41:33;;;;;;;0.00;0.00;;;12.50;99.90;;;;;;4995798;28;20051;-71
2022/12/31 04:43:59;;;;;;;0.15;0.10;;;12.50;99.90;;;;;;4984981;28;20050;-70
2022/12/31 04:46:26;;;;;;;0.47;0.13;;;12.70;99.90;;;;;;4993760;28;20061;-71
2022/12/31 04:48:52;;;;;;;0.80;0.20;;;12.70;99.90;;;;;;4984947;28;20042;-70
2022/12/31 04:51:18;;;;;;;0.22;0.22;;;12.70;99.90;;;;;;4985663;28;20057;-71
2022/12/31 04:53:44;;;;;;;0.20;0.20;;;12.80;99.90;;;;;;4975601;28;20038;-71
2022/12/31 04:56:10;;;;;;;0.22;0.20;;;12.90;99.90;;;;;;4994708;28;20050;-71
2022/12/31 04:58:38;;;;;;;0.60;0.20;;;13.00;99.90;;;;;;4987646;28;20042;-71
2022/12/31 05:01:04;;;;;;;0.25;0.20;;;13.10;99.90;;;;;;4983633;28;20054;-71
2022/12/31 05:03:30;;;;;;;0.20;0.20;;;13.10;99.90;;;;;;5000183;28;20511;-71
2022/12/31 05:06:07;;;;;;;0.38;0.30;;;13.40;99.90;;;;;;5020122;28;20455;-72
2022/12/31 05:08:32;;;;;;;0.63;0.30;;;13.40;99.90;;;;;;5011333;28;20048;-71
2022/12/31 05:11:00;;;;;;;0.47;0.20;;;13.50;99.90;;;;;;4984675;28;20043;-71
2022/12/31 05:13:25;;;;;;;0.73;0.32;;;13.50;99.90;;;;;;5019540;28;20057;-71
2022/12/31 05:15:51;;;;;;;0.10;0.10;;;13.60;99.90;;;;;;4970607;28;20042;-72
2022/12/31 05:18:17;;;;;;;0.95;0.20;;;13.60;99.90;;;;;;4998816;28;20046;-72
2022/12/31 05:20:43;;;;;;;1.25;0.20;;;13.60;99.90;;;;;;4991129;28;20046;-71
2022/12/31 05:23:08;;;;;;;1.17;0.30;;;13.60;99.90;;;;;;4999403;28;20661;-71
2022/12/31 05:25:35;;;;;;;0.70;0.22;;;13.70;99.90;;;;;;5035591;28;20049;-71
2022/12/31 05:28:01;;;;;;;0.63;0.40;;;13.80;99.90;;;;;;5018499;28;20480;-72
2022/12/31 05:30:27;;;;;;;0.93;0.50;;;13.80;99.90;;;;;;4987923;28;20054;-71
2022/12/31 05:32:53;;;;;;;2.38;0.70;;;13.80;99.90;;;;;;4999600;28;20060;-72
2022/12/31 05:35:19;;;;;;;1.73;0.88;;;13.90;99.90;;;;;;5014566;28;20046;-71
2022/12/31 05:37:44;;;;;;;1.67;0.77;;;14.00;99.90;;;;;;4975034;28;20081;-72
2022/12/31 05:40:11;;;;;;;1.38;0.70;;;14.00;99.90;;;;;;4988073;28;20050;-71
2022/12/31 05:42:36;;;;;;;0.95;0.40;;;14.00;99.90;;;;;;4984137;28;20050;-72
2022/12/31 05:45:02;;;;;;;1.23;0.60;;;14.00;99.90;;;;;;4990862;28;20049;-71
2022/12/31 05:47:28;;;;;;;0.77;0.60;;;14.00;99.90;;;;;;4971971;28;20042;-72
2022/12/31 05:49:54;;;;;;;1.02;0.60;;;14.00;99.90;;;;;;4979112;28;20353;-71
2022/12/31 05:52:20;;;;;;;2.05;0.82;;;14.10;99.90;;;;;;4995353;28;20483;-71
2022/12/31 05:54:46;;;;;;;2.13;0.60;;;14.20;99.90;;;;;;4977886;28;20050;-71
2022/12/31 05:57:11;;;;;;;3.10;0.60;;;14.20;99.90;;;;;;5023891;28;20104;-71
2022/12/31 05:59:38;;;;;;;2.13;0.47;;;14.20;99.90;;;;;;4996762;28;20046;-73
2022/12/31 06:02:04;;;;;;;3.17;0.60;;;14.30;99.90;;;;;;5002586;28;20065;-73
2022/12/31 06:04:30;;;;;;;1.42;0.40;;;14.30;99.90;;;;;;4994845;28;20062;-72
2022/12/31 06:06:55;;;;;;;0.52;0.30;;;14.20;99.90;;;;;;5007662;28;20041;-72
2022/12/31 06:09:21;;;;;;;0.55;0.20;;;14.10;99.90;;;;;;5003833;28;20038;-71
2022/12/31 06:11:47;;;;;;;0.73;0.22;;;14.00;99.90;;;;;;4997753;28;20075;-71
2022/12/31 06:14:13;;;;;;;0.80;0.20;;;13.70;99.90;;;;;;5019494;28;20046;-71
2022/12/31 06:16:39;;;;;;;0.45;0.30;;;13.60;99.90;;;;;;4984511;28;20065;-72
2022/12/31 06:19:05;;;;;;;1.45;0.20;;;13.40;99.90;;;;;;5015345;28;20046;-72
2022/12/31 06:21:31;;;;;;;0.25;0.20;;;13.30;99.90;;;;;;5005096;28;20056;-72
2022/12/31 06:23:57;;;;;;;0.80;0.20;;;13.20;99.90;;;;;;5005532;28;20046;-72
2022/12/31 06:26:24;;;;;;;1.27;0.28;;;13.20;99.90;;;;;;5023956;28;20042;-72
2022/12/31 06:28:49;;;;;;;0.57;0.30;;;13.10;99.90;;;;;;4982482;28;20658;-73
2022/12/31 06:31:15;;;;;;;1.25;0.22;;;13.10;99.90;;;;;;5008812;28;20046;-72
2022/12/31 06:33:41;;;;;;;1.75;0.30;;;13.10;99.90;;;;;;5026191;28;20120;-72
2022/12/31 06:36:10;;;;;;;0.95;0.40;;;13.00;99.90;;;;;;5042392;28;20076;-72
2022/12/31 06:38:37;;;;;;;0.50;0.50;;;12.90;99.90;;;;;;4984577;28;20042;-73
2022/12/31 06:41:07;;;;;;;0.80;0.43;;;12.70;99.90;;;;;;5005161;28;20451;-72
2022/12/31 06:43:35;;;;;;;0.50;0.40;;;12.70;99.90;;;;;;5024155;28;20050;-72
2022/12/31 06:46:02;;;;;;;0.50;0.30;;;12.60;99.90;;;;;;4997124;28;20092;-73
2022/12/31 06:48:31;;;;;;;0.55;0.40;;;12.50;99.90;;;;;;4992539;28;20085;-73
2022/12/31 06:51:01;;;;;;;0.50;0.30;;;12.50;99.90;;;;;;4960321;28;20057;-73
2022/12/31 06:53:27;;;;;;;0.30;0.30;;;12.40;99.90;;;;;;5000218;28;20049;-74
2022/12/31 06:55:53;;;;;;;0.13;0.13;;;12.30;99.90;;;;;;4991790;28;20052;-73
2022/12/31 06:58:19;;;;;;;0.20;0.20;;;12.20;99.90;;;;;;5018862;28;20076;-73
2022/12/31 07:01:17;;;;;;;0.25;0.20;;;12.20;99.90;;;;;;4992616;28;20676;-73
2022/12/31 07:04:04;;;;;;;0.85;0.20;;;12.20;99.90;;;;;;4995445;28;20046;-73
2022/12/31 07:06:32;;;;;;;0.50;0.20;;;12.10;99.90;;;;;;4997857;28;20528;-71
2022/12/31 07:09:25;;;;;;;0.20;0.20;;;12.10;99.90;;;;;;4994171;28;20614;-73
2022/12/31 07:12:05;;;;;;;2.15;0.32;;;12.10;99.90;;;;;;5018841;28;20096;-72
2022/12/31 07:14:53;;;;;;;0.20;0.20;;;12.10;99.90;;;;;;5013991;28;20515;-71
2022/12/31 07:17:40;;;;;;;0.63;0.38;;;12.00;99.90;;;;;;4987482;28;20477;-71
2022/12/31 07:20:08;;;;;;;0.65;0.32;;;12.00;99.90;;;;;;5038964;28;20057;-71
2022/12/31 07:22:34;;;;;;;1.60;0.50;;;12.00;99.90;;;;;;5025230;28;20053;-75
2022/12/31 07:25:00;;;;;;;0.65;0.50;;;12.10;99.90;;;;;;5008046;28;20116;-77
2022/12/31 07:27:46;;;;;;;0.70;0.43;;;12.00;99.90;;;;;;5024733;28;20041;-79
2022/12/31 07:30:26;;;;;;;0.68;0.50;;;12.00;99.90;;;;;;5027055;28;20041;-78
2022/12/31 07:32:57;;;;;;;0.75;0.30;;;12.00;99.90;;;;;;5004612;28;20558;-79
2022/12/31 07:36:00;;;;;;;0.50;0.40;;;12.10;99.90;;;;;;5031272;28;20428;-79
2022/12/31 07:38:36;;;;;;;0.82;0.65;;;12.10;99.90;;;;;;5026931;28;20112;-79
2022/12/31 07:41:45;;;;;;;1.27;0.63;;;12.10;99.90;;;;;;5011706;28;20042;-75
2022/12/31 07:44:29;;;;;;;;;;;12.10;99.90;;;;;;5010649;28;20364;-80
2022/12/31 07:46:56;;;;;;;1.98;0.98;;;12.10;99.90;;;;;;5005696;28;19920;-79
2022/12/31 07:49:23;;;;;;;2.33;0.93;;;12.10;99.90;;;;;;4986716;28;20132;-80
2022/12/31 07:51:49;;;;;;;2.20;1.00;;;12.10;99.90;;;;;;5004257;28;20282;-79
2022/12/31 07:54:15;;;;;;;2.25;1.10;;;12.10;99.90;;;;;;5006919;28;20049;-79
2022/12/31 07:56:41;;;;;;;3.17;1.33;;;12.20;99.90;;;;;;4976541;28;20112;-80
2022/12/31 07:59:12;;;;;;;5.05;1.70;;;12.30;99.90;;;;;;5005226;28;20468;-79
2022/12/31 08:02:07;;;;;;;3.65;1.52;;;12.30;99.90;;;;;;5000414;28;20498;-80
2022/12/31 08:04:38;;;;;;;4.65;1.45;;;12.40;99.90;;;;;;4990620;28;20046;-79
2022/12/31 08:07:14;;;;;;;3.67;1.60;;;12.50;99.90;;;;;;5018983;28;20157;-78
2022/12/31 08:09:45;;;;;;;3.03;1.50;;;12.90;99.90;;;;;;5012941;28;20078;-74
2022/12/31 08:12:12;;;;;;;5.28;1.80;;;13.00;99.90;;;;;;4989205;28;20786;-77
2022/12/31 08:14:43;;;;;;;2.65;1.30;;;13.20;99.90;;;;;;4988830;28;20046;-71
2022/12/31 08:17:16;;;;;;;3.17;1.40;;;13.20;99.90;;;;;;5007226;28;20558;-71
2022/12/31 08:19:45;;;;;;;3.47;1.20;;;13.40;99.90;;;;;;5003044;28;20051;-72
2022/12/31 08:22:32;;;;;;;2.45;0.70;;;13.50;99.90;;;;;;4978579;28;20547;-72
2022/12/31 08:25:24;;;;;;;1.38;0.60;;;13.60;99.90;;;;;;5023648;28;20061;-71
2022/12/31 08:28:14;;;;;;;0.50;0.40;;;13.60;99.90;;;;;;5038929;28;20752;-73
2022/12/31 08:30:47;;;;;;;0.77;0.40;;;13.70;99.90;;;;;;4993100;28;20050;-72
2022/12/31 08:33:18;;;;;;;2.67;0.40;;;13.70;99.90;;;;;;4990066;28;20128;-73
2022/12/31 08:36:11;;;;;;;1.05;0.50;;;13.70;99.90;;;;;;4991333;28;20053;-73
2022/12/31 08:38:57;;;;;;;1.40;0.45;;;13.70;99.90;;;;;;4992242;28;20088;-73
2022/12/31 08:41:29;;;;;;;2.13;0.50;;;13.40;99.90;;;;;;5009262;28;20191;-73
2022/12/31 08:44:09;;;;;;;0.77;0.43;;;13.40;99.90;;;;;;5001625;28;20042;-73
2022/12/31 08:46:57;;;;;;;2.83;0.55;;;13.30;99.90;;;;;;4999267;28;20058;-72
2022/12/31 08:49:25;;;;;;;0.47;0.45;;;13.20;99.90;;;;;;4988267;28;20145;-73
2022/12/31 08:51:51;;;;;;;2.20;0.65;;;13.00;99.90;;;;;;4981696;28;20090;-73
2022/12/31 08:54:17;;;;;;;0.90;0.57;;;13.00;99.90;;;;;;5000597;28;20054;-73
2022/12/31 08:57:19;;;;;;;4.60;0.60;;;13.10;99.90;;;;;;4972325;28;20562;-73
2022/12/31 08:59:53;;;;;;;0.60;0.50;;;13.10;99.90;;;;;;4984406;28;20057;-73
2022/12/31 09:02:38;;;;;;;2.60;0.70;;;13.10;99.90;;;;;;5038065;28;20366;-73
2022/12/31 09:05:04;;;;;;;2.22;0.80;;;12.90;99.90;;;;;;4996809;28;20049;-73
2022/12/31 09:07:36;;;;;;;1.48;0.68;;;12.80;99.90;;;;;;5044380;28;20042;-73
2022/12/31 09:10:06;;;;;;;2.55;0.90;;;12.70;99.90;;;;;;4978155;28;20038;-76
2022/12/31 09:12:55;;;;;;;2.75;1.38;;;12.80;99.90;;;;;;4988001;28;20038;-76
2022/12/31 09:15:32;;;;;;;1.65;1.20;;;12.80;99.90;;;;;;5007271;28;20460;-77
2022/12/31 09:17:58;;;;;;;2.45;1.10;;;12.80;99.90;;;;;;5016444;28;20053;-73
2022/12/31 09:20:34;;;;;;;1.98;0.80;;;12.80;99.90;;;;;;5007980;28;20050;-75
2022/12/31 09:23:00;;;;;;;1.88;0.90;;;12.80;99.90;;;;;;4975761;28;20050;-73
2022/12/31 09:25:26;;;;;;;1.90;1.23;;;12.80;99.90;;;;;;5026309;28;20046;-73
2022/12/31 09:28:12;;;;;;;2.72;1.10;;;12.80;99.90;;;;;;4988861;28;20114;-75
2022/12/31 09:31:04;;;;;;;3.40;1.30;;;12.80;99.90;;;;;;5005376;28;20057;-73
2022/12/31 09:33:39;;;;;;;1.92;0.90;;;12.90;99.90;;;;;;5008521;28;20108;-75
2022/12/31 09:36:06;;;;;;;3.05;1.40;;;12.80;99.90;;;;;;5006756;28;20050;-74
2022/12/31 09:38:51;;;;;;;1.85;1.00;;;12.80;99.90;;;;;;4992878;28;20063;-75
2022/12/31 09:41:54;;;;;;;3.50;1.10;;;12.80;99.90;;;;;;4992915;28;20422;-75
2022/12/31 09:44:46;;;;;;;2.00;0.90;;;12.90;99.90;;;;;;5003606;28;20053;-74
2022/12/31 09:47:37;;;;;;;2.17;0.93;;;12.90;99.90;;;;;;4970026;28;20073;-77
2022/12/31 09:50:21;;;;;;;2.22;0.90;;;13.00;99.90;;;;;;4996470;28;20070;-73
2022/12/31 09:53:08;;;;;;;1.02;0.70;;;13.00;99.90;;;;;;5020014;28;20050;-74
2022/12/31 09:56:02;;;;;;;2.22;0.73;;;13.10;99.90;;;;;;5007842;28;20376;-75
2022/12/31 09:58:40;;;;;;;1.27;0.60;;;13.30;99.90;;;;;;4992725;28;20068;-74
2022/12/31 10:01:31;;;;;;;2.33;0.63;;;13.40;99.90;;;;;;4995996;28;20081;-75
2022/12/31 10:04:15;;;;;;;1.70;0.70;;;13.50;99.90;;;;;;5043315;28;20061;-74
2022/12/31 10:06:47;;;;;;;1.40;0.65;;;13.60;99.90;;;;;;5024896;28;20503;-73
2022/12/31 10:09:28;;;;;;;3.70;0.80;;;13.80;99.90;;;;;;5021700;28;20084;-74
2022/12/31 10:12:19;;;;;;;3.63;0.70;;;13.80;99.90;;;;;;4978223;28;20061;-73
2022/12/31 10:14:54;;;;;;;3.38;0.75;;;13.90;99.90;;;;;;5006078;28;20083;-73
2022/12/31 10:17:41;;;;;;;3.35;0.80;;;14.00;99.90;;;;;;5039619;28;20057;-74
2022/12/31 10:20:56;;;;;;;1.30;0.70;;;14.10;99.90;;;;;;4964823;28;20050;-74
2022/12/31 10:23:43;;;;;;;1.27;0.73;;;14.30;99.90;;;;;;4980265;28;20140;-75
2022/12/31 10:26:23;;;;;;;1.97;0.80;;;14.40;99.90;;;;;;5002854;28;20042;-73
2022/12/31 10:28:54;;;;;;;2.95;0.98;;;14.50;99.90;;;;;;5010458;28;20052;-75
2022/12/31 10:31:46;;;;;;;2.00;0.95;;;14.60;99.90;;;;;;5024658;28;20064;-74
2022/12/31 10:34:14;;;;;;;3.00;1.00;;;14.60;99.90;;;;;;5025505;28;20049;-74
2022/12/31 10:37:08;;;;;;;2.92;1.30;;;14.70;99.90;;;;;;4988261;28;20046;-75
2022/12/31 10:39:49;;;;;;;6.28;1.65;;;14.80;99.90;;;;;;4992074;28;20056;-73
2022/12/31 10:42:52;;;;;;;2.97;1.42;;;14.90;99.90;;;;;;5019447;28;20062;-74
2022/12/31 10:45:36;;;;;;;4.43;1.10;;;15.00;99.90;;;;;;5036946;28;20038;-72
2022/12/31 10:48:22;;;;;;;1.83;0.90;;;15.10;99.90;;;;;;5039145;28;20383;-74
2022/12/31 10:50:57;;;;;;;4.03;2.10;;;15.00;99.90;;;;;;4993317;28;20082;-73
2022/12/31 10:53:25;;;;;;;3.90;1.55;;;15.10;99.90;;;;;;5038185;28;20073;-75
2022/12/31 10:56:10;;;;;;;;;;;15.10;99.90;;;;;;5019756;28;20046;-74
2022/12/31 10:59:00;;;;;;;4.53;1.58;;;15.20;99.90;;;;;;5023567;28;19918;-75
2022/12/31 11:01:26;;;;;;;2.78;1.30;;;15.20;99.90;;;;;;5034524;28;20070;-73
2022/12/31 11:04:01;;;;;;;2.90;1.00;;;15.30;99.90;;;;;;5036473;28;20053;-73
2022/12/31 11:06:54;;;;;;;1.98;1.10;;;15.30;99.90;;;;;;5037537;28;20050;-74
2022/12/31 11:09:40;;;;;;;3.97;1.40;;;15.30;99.90;;;;;;4997489;28;20129;-75
2022/12/31 11:12:39;;;;;;;2.80;1.17;;;15.40;99.90;;;;;;5017586;28;20050;-74
2022/12/31 11:15:20;;;;;;;2.97;1.00;;;15.50;99.90;;;;;;4998257;28;20554;-73
2022/12/31 11:18:05;;;;;;;2.75;1.10;;;15.70;99.90;;;;;;5032209;28;20069;-74
2022/12/31 11:20:54;;;;;;;3.97;1.00;;;15.60;99.90;;;;;;4991066;28;20068;-77
2022/12/31 11:23:43;;;;;;;2.22;0.90;;;15.70;99.90;;;;;;5001098;28;20053;-77
2022/12/31 11:26:46;;;;;;;3.03;0.70;;;15.70;99.90;;;;;;4989407;28;20069;-75
2022/12/31 11:29:24;;;;;;;2.53;0.85;;;15.70;99.90;;;;;;4998961;28;20053;-74
2022/12/31 11:31:58;;;;;;;2.57;0.60;;;15.70;99.90;;;;;;5022336;28;20534;-74
2022/12/31 11:34:42;;;;;;;1.83;0.77;;;15.80;99.90;;;;;;5021974;28;20292;-75
2022/12/31 11:37:23;;;;;;;2.15;1.02;;;15.90;99.90;;;;;;4980233;28;20053;-75
2022/12/31 11:40:12;;;;;;;1.90;0.95;;;15.90;99.90;;;;;;5028053;28;20050;-75
2022/12/31 11:42:53;;;;;;;2.72;1.02;;;16.00;99.90;;;;;;4992978;28;20317;-76
2022/12/31 11:45:50;;;;;;;3.28;0.55;;;16.00;99.90;;;;;;5018488;28;20045;-78
2022/12/31 11:48:24;;;;;;;3.17;1.20;;;16.10;99.90;;;;;;4997023;28;20550;-75
2022/12/31 11:51:07;;;;;;;5.82;2.20;;;16.20;99.90;;;;;;4992983;28;20127;-77
2022/12/31 11:53:35;;;;;;;3.15;0.63;;;16.30;99.90;;;;;;4990562;28;20046;-75
2022/12/31 11:56:18;;;;;;;4.65;1.35;;;16.30;99.90;;;;;;4993472;28;20418;-75
2022/12/31 11:58:47;;;;;;;5.35;2.13;;;16.40;99.90;;;;;;5002373;28;20164;-75
2022/12/31 12:01:41;;;;;;;4.88;2.42;;;16.40;99.90;;;;;;4995911;28;20467;-74
2022/12/31 12:04:09;;;;;;;3.65;2.13;;;16.40;99.90;;;;;;4998340;28;20046;-75
2022/12/31 12:06:34;;;;;;;2.70;1.17;;;16.50;99.90;;;;;;4987595;28;20077;-76
2022/12/31 12:09:30;;;;;;;3.33;0.93;;;16.50;99.90;;;;;;5000384;28;20761;-77
2022/12/31 12:12:01;;;;;;;2.45;1.00;;;16.60;99.90;;;;;;4975711;28;20050;-75
2022/12/31 12:14:48;;;;;;;3.17;0.98;;;16.70;99.90;;;;;;4972583;28;20072;-77
2022/12/31 12:17:30;;;;;;;4.97;0.88;;;16.80;99.90;;;;;;4996631;28;20117;-74
2022/12/31 12:19:56;;;;;;;3.30;0.80;;;16.90;99.90;;;;;;4977900;28;20265;-76
2022/12/31 12:22:23;;;;;;;2.08;0.65;;;17.00;99.90;;;;;;4988241;28;20137;-77
2022/12/31 12:25:04;;;;;;;0.98;0.40;;;17.00;99.90;;;;;;4988555;28;20046;-76
2022/12/31 12:27:32;;;;;;;2.08;0.50;;;16.90;99.90;;;;;;5013498;28;20495;-73
2022/12/31 12:30:06;;;;;;;3.30;0.70;;;16.90;99.90;;;;;;5005520;28;20129;-78
2022/12/31 12:32:32;;;;;;;2.17;0.65;;;17.00;99.90;;;;;;4986806;28;20042;-71
2022/12/31 12:35:12;;;;;;;1.77;0.70;;;17.00;99.90;;;;;;4976320;28;20046;-71
2022/12/31 12:37:38;;;;;;;2.30;0.50;;;17.00;99.90;;;;;;4997436;28;20050;-72
2022/12/31 12:40:18;;;;;;;1.95;0.60;;;16.90;99.90;;;;;;5006101;28;20109;-72
2022/12/31 12:42:48;;;;;;;2.67;0.80;;;17.00;99.90;;;;;;5006216;28;20049;-73
2022/12/31 12:45:15;;;;;;;2.35;0.70;;;17.00;99.90;;;;;;4997932;28;20098;-71
2022/12/31 12:47:46;;;;;;;2.42;0.63;;;17.00;99.90;;;;;;5007336;28;20435;-72
2022/12/31 12:50:40;;;;;;;1.67;0.82;;;17.10;99.90;;;;;;4989206;28;20047;-72
2022/12/31 12:53:25;;;;;;;2.92;0.60;;;17.20;99.90;;;;;;5024739;28;20053;-71
2022/12/31 12:56:37;;;;;;;3.40;0.90;;;17.10;99.90;;;;;;4993090;28;20046;-72
2022/12/31 12:59:38;;;;;;;4.15;0.80;;;17.10;99.90;;;;;;4974717;28;20071;-71
2022/12/31 13:02:20;;;;;;;2.85;0.75;;;17.20;99.90;;;;;;4997867;28;20058;-71
2022/12/31 13:04:54;;;;;;;2.92;0.85;;;17.30;99.90;;;;;;4993727;28;20043;-72
2022/12/31 13:07:47;;;;;;;3.33;0.90;;;17.30;99.90;;;;;;5005101;28;20053;-71
2022/12/31 13:10:41;;;;;;;5.75;1.27;;;17.30;99.90;;;;;;4993126;28;20380;-71
2022/12/31 13:13:29;;;;;;;2.47;0.98;;;17.20;99.90;;;;;;4995585;28;20046;-72
2022/12/31 13:16:03;;;;;;;2.92;0.98;;;17.10;99.90;;;;;;4996635;28;20516;-74
2022/12/31 13:18:41;;;;;;;2.83;1.00;;;17.10;99.90;;;;;;4992844;28;20054;-73
2022/12/31 13:21:27;;;;;;;2.28;0.90;;;17.10;99.90;;;;;;4994356;28;20119;-76
2022/12/31 13:24:31;;;;;;;2.50;0.90;;;17.10;99.90;;;;;;4974264;28;20057;-71
2022/12/31 13:27:14;;;;;;;2.58;1.35;;;17.10;99.90;;;;;;4980916;28;20038;-73
2022/12/31 13:29:40;;;;;;;3.92;1.17;;;17.10;99.90;;;;;;4999009;28;20120;-73
2022/12/31 13:32:07;;;;;;;3.08;1.25;;;17.10;99.90;;;;;;4988006;28;20053;-72